Petersburg, AK

10:40 PM AKST on January 30, 2015 (GMT -0900)
Wrangell | Change Station
CLOSE
Current Station
Airport
Location: Wrangell,
Elevation: 43 ft
Nearby Weather Stations

Elev 43 ft 56.48 °N, 132.37 °W | Updated 4 minutes ago

Partly Cloudy
Partly Cloudy
30 °F
Feels Like 25 °F
N
5
Wind Variable Wind from SSE

Today
High -- | Low -- °F
--% Chance of Precip.
Yesterday
High -- | Low -- °F
Precip. -- in
7:55 AM 4:18 PM
Waxing Gibbous, 88% visible
Pressure 30.40 in
Visibility 10.0 miles
Clouds Few 600 ft
Windchill 25 °F
Dew Point 25 °F
Humidity 80%
Rainfall 0.06 in
Snow Depth Not available.
UV 0 out of 12
Pollen Not available.
Air Quality Not available.
Flu Activity Not available.
METAR PAWG 310736Z 15004KT 10SM FEW006 M01/M04 A3040 RMK AO1 WEA: NONE (MCQ)

More Conditions Fewer Conditions

Pressure 30.40 in
Visibility 10.0 miles
Clouds Few 600 ft
Windchill 25 °F
Dew Point 25 °F
Humidity 80%
Rainfall 0.06 in
Snow Depth Not available.
UV 0 out of 12
Pollen Not available.
Air Quality Not available.
Flu Activity Not available.
METAR PAWG 310736Z 15004KT 10SM FEW006 M01/M04 A3040 RMK AO1 WEA: NONE (MCQ)

More Conditions Fewer Conditions

10-Day Weather Forecast

Almanac

Astronomy

Jan. 30, 2015 Rise Set
Actual Time
Civil Twilight
Nautical Twilight
Astronomical Twilight
Moon
Length of Visible Light
Length of Day
Tomorrow will be .
, % of the Moon is Illuminated

Today's Extremes

State Highs State Lows

Community

WunderPhotos

Upload Photos

1,792,014 photos uploaded!

WunderBlogs® & News

Nearby

Air Quality

  Air Quality AQ Index Pollutant
Not available.

Snow Depth

Station Depth Elevation

Earthquake Activity

City Distance Mag. Time & Date
Minimum magnitude displayed is 2.5.

Coastal Water Temperatures

Place Temperature

Nearby Weather Stations